Time;durP1;ratioP1;P1;durP2;ratioP2;P2;SDS_P1;SDS_P2;PMS_P1;PMS_P2;Temp;Humidity;BMP_temperature;BMP_pressure;BME280_temperature;BME280_humidity;BME280_pressure;Samples;Min_cycle;Max_cycle;Signal;HPM_P1;HPM_P2
2023/09/16 00:00:56;;;;;;;23.37;14.23;;;14.50;99.90;;;;;;4960275;28;20463;-58
2023/09/16 00:03:22;;;;;;;26.90;15.10;;;14.50;99.90;;;;;;4962405;28;20447;-59
2023/09/16 00:05:47;;;;;;;22.63;15.53;;;14.40;99.90;;;;;;4957776;28;20227;-57
2023/09/16 00:08:13;;;;;;;24.30;15.40;;;14.50;99.90;;;;;;4967649;28;20190;-58
2023/09/16 00:10:40;;;;;;;26.60;14.53;;;14.50;99.90;;;;;;4958335;28;20196;-60
2023/09/16 00:13:06;;;;;;;32.93;14.97;;;14.50;99.90;;;;;;4964508;28;20229;-58
2023/09/16 00:15:31;;;;;;;62.47;14.33;;;14.50;99.90;;;;;;4964883;28;20464;-59
2023/09/16 00:17:57;;;;;;;27.10;13.87;;;14.50;99.90;;;;;;4959491;28;20221;-58
2023/09/16 00:20:25;;;;;;;24.60;14.57;;;14.50;99.90;;;;;;4957948;28;20183;-62
2023/09/16 00:22:51;;;;;;;25.17;14.70;;;14.40;99.90;;;;;;4963792;28;20213;-61
2023/09/16 00:25:17;;;;;;;33.73;13.90;;;14.40;99.90;;;;;;4961640;28;20518;-61
2023/09/16 00:27:42;;;;;;;22.83;13.23;;;14.50;99.90;;;;;;4964328;28;20178;-61
2023/09/16 00:30:08;;;;;;;22.97;14.30;;;14.50;99.90;;;;;;4967953;28;20261;-61
2023/09/16 00:32:34;;;;;;;43.37;14.27;;;14.50;99.90;;;;;;4961221;28;20206;-61
2023/09/16 00:35:02;;;;;;;43.20;13.50;;;14.40;99.90;;;;;;4962634;28;20521;-61
2023/09/16 00:37:28;;;;;;;32.97;13.17;;;14.40;99.90;;;;;;4965743;28;20811;-61
2023/09/16 00:39:54;;;;;;;27.27;15.30;;;14.40;99.90;;;;;;4960402;28;20425;-61
2023/09/16 00:42:20;;;;;;;31.17;15.00;;;14.40;99.90;;;;;;4965893;28;20453;-61
2023/09/16 00:44:46;;;;;;;23.00;14.60;;;14.30;99.90;;;;;;4965525;28;20214;-61
2023/09/16 00:47:12;;;;;;;33.80;15.23;;;14.30;99.90;;;;;;4969913;28;20698;-61
2023/09/16 00:49:38;;;;;;;27.03;16.17;;;14.30;99.90;;;;;;4968068;28;20434;-61
2023/09/16 00:52:04;;;;;;;24.00;13.93;;;14.30;99.90;;;;;;4970671;28;20453;-61
2023/09/16 00:54:30;;;;;;;18.43;13.30;;;14.30;99.90;;;;;;4970078;28;20504;-61
2023/09/16 00:56:57;;;;;;;18.80;12.77;;;14.30;99.90;;;;;;4969255;28;20454;-63
2023/09/16 00:59:25;;;;;;;27.83;12.03;;;14.30;99.90;;;;;;4970544;28;20437;-61
2023/09/16 01:01:53;;;;;;;19.07;13.20;;;14.20;99.90;;;;;;4959711;28;20465;-61
2023/09/16 01:04:21;;;;;;;30.67;13.03;;;14.20;99.90;;;;;;4967847;28;20443;-61
2023/09/16 01:06:50;;;;;;;20.87;12.33;;;14.20;99.90;;;;;;4968471;28;20432;-61
2023/09/16 01:09:17;;;;;;;21.50;12.97;;;14.20;99.90;;;;;;4963120;28;20422;-61
2023/09/16 01:11:43;;;;;;;24.17;12.77;;;14.20;99.90;;;;;;4960675;28;20437;-61
2023/09/16 01:14:13;;;;;;;17.60;12.50;;;14.20;99.90;;;;;;4969730;28;20463;-62
2023/09/16 01:16:46;;;;;;;28.90;13.13;;;14.10;99.90;;;;;;4965021;28;20432;-61
2023/09/16 01:19:16;;;;;;;26.87;14.93;;;14.10;99.90;;;;;;4964477;28;20947;-61
2023/09/16 01:21:43;;;;;;;22.57;14.30;;;14.10;99.90;;;;;;4969659;28;20875;-61
2023/09/16 01:24:19;;;;;;;22.87;13.53;;;14.10;99.90;;;;;;4969700;28;20495;-60
2023/09/16 01:26:48;;;;;;;21.60;14.27;;;14.10;99.90;;;;;;4967147;28;20521;-61
2023/09/16 01:29:16;;;;;;;30.87;15.50;;;14.10;99.90;;;;;;4964639;28;20430;-61
2023/09/16 01:31:43;;;;;;;31.83;16.00;;;14.10;99.90;;;;;;4955892;28;20500;-61
2023/09/16 01:34:21;;;;;;;31.07;15.70;;;14.10;99.90;;;;;;4963181;28;20432;-61
2023/09/16 01:36:49;;;;;;;36.17;16.50;;;14.10;99.90;;;;;;4963728;28;20487;-61
2023/09/16 01:39:17;;;;;;;48.93;18.33;;;14.10;99.90;;;;;;4970359;28;20417;-61
2023/09/16 01:41:44;;;;;;;51.07;19.90;;;14.10;99.90;;;;;;4969982;28;20441;-61
2023/09/16 01:44:09;;;;;;;37.37;17.30;;;14.10;99.90;;;;;;4963540;28;20425;-61
2023/09/16 01:46:35;;;;;;;40.37;17.90;;;14.10;99.90;;;;;;4961586;28;20943;-61
2023/09/16 01:49:01;;;;;;;42.27;17.17;;;14.10;99.90;;;;;;4963639;28;20208;-61
2023/09/16 01:51:26;;;;;;;45.57;18.40;;;14.10;99.90;;;;;;4962271;28;20281;-60
2023/09/16 01:53:52;;;;;;;39.87;18.57;;;14.10;99.90;;;;;;4968265;28;20178;-61
2023/09/16 01:56:17;;;;;;;39.43;17.70;;;14.10;99.90;;;;;;4968274;28;20196;-61
2023/09/16 01:58:43;;;;;;;35.63;17.13;;;14.10;99.90;;;;;;4966067;28;20212;-61
2023/09/16 02:01:10;;;;;;;38.07;15.90;;;14.10;99.90;;;;;;4964744;28;20210;-61
2023/09/16 02:03:36;;;;;;;28.60;15.10;;;14.10;99.90;;;;;;4966753;28;20182;-61
2023/09/16 02:06:01;;;;;;;38.87;16.30;;;14.10;99.90;;;;;;4965950;28;20615;-61
2023/09/16 02:08:27;;;;;;;53.33;16.70;;;14.10;99.90;;;;;;4961870;28;20185;-60
2023/09/16 02:10:53;;;;;;;39.13;17.50;;;14.10;99.90;;;;;;4965429;28;20593;-61
2023/09/16 02:13:18;;;;;;;36.90;18.50;;;14.00;99.90;;;;;;4970389;28;20182;-61
2023/09/16 02:15:44;;;;;;;33.17;17.83;;;14.00;99.90;;;;;;4963261;28;20192;-61
2023/09/16 02:18:09;;;;;;;43.70;16.97;;;14.10;99.90;;;;;;4965774;28;20208;-61
2023/09/16 02:20:35;;;;;;;34.93;17.13;;;14.10;99.90;;;;;;4964692;28;20178;-61
2023/09/16 02:23:02;;;;;;;33.80;15.80;;;14.10;99.90;;;;;;4966675;28;20282;-61
2023/09/16 02:25:27;;;;;;;30.13;15.87;;;14.10;99.90;;;;;;4963527;28;20720;-61
2023/09/16 02:27:53;;;;;;;34.73;17.03;;;14.10;99.90;;;;;;4963273;28;20456;-61
2023/09/16 02:30:19;;;;;;;31.37;16.97;;;14.10;99.90;;;;;;4962052;28;20175;-61
2023/09/16 02:32:44;;;;;;;39.90;18.27;;;14.10;99.90;;;;;;4968755;28;20215;-61
2023/09/16 02:35:10;;;;;;;40.83;18.33;;;14.10;99.90;;;;;;4968817;28;20188;-61
2023/09/16 02:37:36;;;;;;;48.67;19.30;;;14.10;99.90;;;;;;4966714;28;20552;-61
2023/09/16 02:40:02;;;;;;;43.67;18.57;;;14.10;99.90;;;;;;4968012;28;20450;-61
2023/09/16 02:42:28;;;;;;;47.37;20.00;;;14.10;99.90;;;;;;4969410;28;20225;-61
2023/09/16 02:44:53;;;;;;;32.03;16.17;;;14.10;99.90;;;;;;4965926;28;21029;-61
2023/09/16 02:47:20;;;;;;;31.77;15.63;;;14.10;99.90;;;;;;4963843;28;20178;-61
2023/09/16 02:49:46;;;;;;;29.13;15.07;;;14.10;99.90;;;;;;4965474;28;20178;-61
2023/09/16 02:52:11;;;;;;;38.17;15.13;;;14.00;99.90;;;;;;4965170;28;20515;-60
2023/09/16 02:54:37;;;;;;;22.87;13.30;;;14.00;99.90;;;;;;4968566;28;20182;-61
2023/09/16 02:57:03;;;;;;;20.20;12.63;;;14.00;99.90;;;;;;4968053;28;20189;-61
2023/09/16 02:59:28;;;;;;;27.20;14.40;;;13.90;99.90;;;;;;4971069;28;20196;-61
2023/09/16 03:01:54;;;;;;;31.47;14.20;;;13.90;99.90;;;;;;4972104;28;20889;-60
2023/09/16 03:04:20;;;;;;;21.87;13.20;;;13.90;99.90;;;;;;4967610;28;20182;-61
2023/09/16 03:06:46;;;;;;;19.80;12.67;;;13.90;99.90;;;;;;4966699;28;20650;-61
2023/09/16 03:09:11;;;;;;;19.13;12.40;;;13.90;99.90;;;;;;4972088;28;20236;-60
2023/09/16 03:11:37;;;;;;;29.20;13.50;;;13.80;99.90;;;;;;4965547;28;21009;-61
2023/09/16 03:14:03;;;;;;;18.70;12.73;;;13.80;99.90;;;;;;4968929;28;20177;-60
2023/09/16 03:16:29;;;;;;;19.83;13.17;;;13.80;99.90;;;;;;4967120;28;20182;-61
2023/09/16 03:18:54;;;;;;;24.00;13.33;;;13.80;99.90;;;;;;4969338;28;20729;-61
2023/09/16 03:21:23;;;;;;;28.73;12.50;;;13.80;99.90;;;;;;4969965;28;20302;-61
2023/09/16 03:23:49;;;;;;;31.20;12.50;;;13.80;99.90;;;;;;4971005;28;20549;-60
2023/09/16 03:26:17;;;;;;;18.90;12.27;;;13.70;99.90;;;;;;4967517;28;20982;-61
2023/09/16 03:28:48;;;;;;;16.13;11.30;;;13.70;99.90;;;;;;4968461;28;20170;-61
2023/09/16 03:31:15;;;;;;;18.00;11.80;;;13.70;99.90;;;;;;4966292;28;20454;-61
2023/09/16 03:33:40;;;;;;;21.33;12.30;;;13.60;99.90;;;;;;4971207;28;20539;-61
2023/09/16 03:36:06;;;;;;;23.50;12.20;;;13.60;99.90;;;;;;4962842;28;21172;-62
2023/09/16 03:38:33;;;;;;;16.90;10.83;;;13.60;99.90;;;;;;4966687;28;20525;-61
2023/09/16 03:41:00;;;;;;;21.90;12.30;;;13.50;99.90;;;;;;4971579;28;20421;-61
2023/09/16 03:43:26;;;;;;;34.50;12.77;;;13.50;99.90;;;;;;4968175;28;20488;-61
2023/09/16 03:45:52;;;;;;;37.77;11.73;;;13.50;99.90;;;;;;4970719;28;20457;-60
2023/09/16 03:48:17;;;;;;;54.13;13.10;;;13.50;99.90;;;;;;4971694;28;20449;-60
2023/09/16 03:50:44;;;;;;;18.73;11.27;;;13.40;99.90;;;;;;4968071;28;20175;-60
2023/09/16 03:53:10;;;;;;;20.50;11.17;;;13.40;99.90;;;;;;4969587;28;20178;-61
2023/09/16 03:55:36;;;;;;;21.30;12.33;;;13.40;99.90;;;;;;4968400;28;20531;-60
2023/09/16 03:58:02;;;;;;;18.37;12.60;;;13.40;99.90;;;;;;4971384;28;20178;-61
2023/09/16 04:00:29;;;;;;;30.60;13.67;;;13.50;99.90;;;;;;4979454;28;20505;-60
2023/09/16 04:02:54;;;;;;;23.90;13.83;;;13.50;99.90;;;;;;4965322;28;20544;-60
2023/09/16 04:05:20;;;;;;;25.73;14.60;;;13.50;99.90;;;;;;4968313;28;20551;-61
2023/09/16 04:07:47;;;;;;;29.07;15.80;;;13.50;99.90;;;;;;4969442;28;20213;-60
2023/09/16 04:10:12;;;;;;;41.27;16.80;;;13.60;99.90;;;;;;4971086;28;20185;-61
2023/09/16 04:12:38;;;;;;;34.97;15.87;;;13.60;99.90;;;;;;4963271;28;20449;-61
2023/09/16 04:15:04;;;;;;;28.70;15.30;;;13.60;99.90;;;;;;4968074;28;20236;-61
2023/09/16 04:17:31;;;;;;;30.57;15.00;;;13.60;99.90;;;;;;4960369;28;20287;-60
2023/09/16 04:19:56;;;;;;;20.10;12.70;;;13.60;99.90;;;;;;4968993;28;20516;-61
2023/09/16 04:22:22;;;;;;;21.60;14.27;;;13.60;99.90;;;;;;4967260;28;21069;-61
2023/09/16 04:24:47;;;;;;;22.97;11.80;;;13.60;99.90;;;;;;4971678;28;20583;-61
2023/09/16 04:27:13;;;;;;;42.90;14.27;;;13.60;99.90;;;;;;4966620;28;20232;-61
2023/09/16 04:29:39;;;;;;;31.50;14.50;;;13.60;99.90;;;;;;4961830;28;20201;-61
2023/09/16 04:32:05;;;;;;;24.93;14.30;;;13.60;99.90;;;;;;4962562;28;20214;-61
2023/09/16 04:34:32;;;;;;;38.50;14.90;;;13.60;99.90;;;;;;4963351;28;20182;-61
2023/09/16 04:36:59;;;;;;;68.60;17.50;;;13.60;99.90;;;;;;4969142;28;20206;-61
2023/09/16 04:39:26;;;;;;;39.23;16.57;;;13.60;99.90;;;;;;4963936;28;20517;-61
2023/09/16 04:41:53;;;;;;;43.53;16.40;;;13.60;99.90;;;;;;4963471;28;20495;-61
2023/09/16 04:44:19;;;;;;;78.97;18.30;;;13.50;99.90;;;;;;4970750;28;20524;-61
2023/09/16 04:46:46;;;;;;;83.33;17.60;;;13.50;99.90;;;;;;4971197;28;20460;-61
2023/09/16 04:49:12;;;;;;;56.37;16.57;;;13.50;99.90;;;;;;4968351;28;20487;-61
2023/09/16 04:51:38;;;;;;;51.17;16.10;;;13.50;99.90;;;;;;4969889;28;20441;-61
2023/09/16 04:54:05;;;;;;;47.13;18.13;;;13.50;99.90;;;;;;4968742;28;20875;-61
2023/09/16 04:56:30;;;;;;;40.60;18.27;;;13.50;99.90;;;;;;4968939;28;20429;-60
2023/09/16 04:58:56;;;;;;;42.10;17.83;;;13.50;99.90;;;;;;4964186;28;20459;-60
2023/09/16 05:01:22;;;;;;;64.53;19.23;;;13.50;99.90;;;;;;4968476;28;20194;-61
2023/09/16 05:03:47;;;;;;;51.37;19.03;;;13.50;99.90;;;;;;4968737;28;20193;-61
2023/09/16 05:06:13;;;;;;;36.53;15.93;;;13.60;99.90;;;;;;4967261;28;20205;-61
2023/09/16 05:08:38;;;;;;;41.30;17.20;;;13.60;99.90;;;;;;4963337;28;20605;-60
2023/09/16 05:11:04;;;;;;;39.93;16.97;;;13.60;99.90;;;;;;4968117;28;20198;-61
2023/09/16 05:13:29;;;;;;;46.20;16.10;;;13.60;99.90;;;;;;4970708;28;20281;-60
2023/09/16 05:15:55;;;;;;;48.60;16.33;;;13.60;99.90;;;;;;4968794;28;20178;-60
2023/09/16 05:18:21;;;;;;;60.67;20.10;;;13.60;99.90;;;;;;4968314;28;20181;-61
2023/09/16 05:20:50;;;;;;;58.63;20.13;;;13.60;99.90;;;;;;4964388;28;20181;-61
2023/09/16 05:23:16;;;;;;;45.27;15.87;;;13.60;99.90;;;;;;4968362;28;20261;-61
2023/09/16 05:25:46;;;;;;;56.40;15.33;;;13.60;99.90;;;;;;4962987;28;20516;-60
2023/09/16 05:28:12;;;;;;;21.43;11.97;;;13.60;99.90;;;;;;4960007;28;20663;-60
2023/09/16 05:30:38;;;;;;;55.13;15.47;;;13.60;99.90;;;;;;4954623;28;20517;-60
2023/09/16 05:33:04;;;;;;;61.47;16.07;;;13.60;99.90;;;;;;4966080;28;20220;-61
2023/09/16 05:35:29;;;;;;;42.70;15.20;;;13.60;99.90;;;;;;4963972;28;20241;-61
2023/09/16 05:37:55;;;;;;;48.80;15.50;;;13.50;99.90;;;;;;4965990;28;20264;-61
2023/09/16 05:40:20;;;;;;;32.60;14.00;;;13.60;99.90;;;;;;4966454;28;20190;-61
2023/09/16 05:42:46;;;;;;;33.37;12.07;;;13.60;99.90;;;;;;4962633;28;20213;-61
2023/09/16 05:45:12;;;;;;;22.70;13.03;;;13.60;99.90;;;;;;4969575;28;20217;-61
2023/09/16 05:47:37;;;;;;;25.57;11.70;;;13.60;99.90;;;;;;4969055;28;20174;-61
2023/09/16 05:50:03;;;;;;;18.07;11.80;;;13.60;99.90;;;;;;4965759;28;20297;-61
2023/09/16 05:52:29;;;;;;;13.00;9.40;;;13.60;99.90;;;;;;4967933;28;20202;-61
2023/09/16 05:54:56;;;;;;;13.83;9.90;;;13.60;99.90;;;;;;4966839;28;20185;-61
2023/09/16 05:57:22;;;;;;;12.23;9.37;;;13.60;99.90;;;;;;4981731;28;20210;-61
2023/09/16 05:59:48;;;;;;;16.57;10.77;;;13.60;99.90;;;;;;4955087;28;20532;-61
2023/09/16 06:02:15;;;;;;;12.43;9.53;;;13.60;99.90;;;;;;4965235;28;20264;-61
2023/09/16 06:04:41;;;;;;;18.03;10.53;;;13.60;99.90;;;;;;4961738;28;20182;-61
2023/09/16 06:07:07;;;;;;;14.10;9.77;;;13.60;99.90;;;;;;4957398;28;20447;-61
2023/09/16 06:09:33;;;;;;;15.00;9.50;;;13.70;99.90;;;;;;4964522;28;20204;-61
2023/09/16 06:11:58;;;;;;;32.13;10.93;;;13.70;99.90;;;;;;4958576;28;20205;-60
2023/09/16 06:14:24;;;;;;;39.00;10.70;;;13.70;99.90;;;;;;4966519;28;20242;-61
2023/09/16 06:16:50;;;;;;;24.93;10.20;;;13.70;99.90;;;;;;4965406;28;20566;-61
2023/09/16 06:19:15;;;;;;;12.23;8.87;;;13.60;99.90;;;;;;4967784;28;20508;-60
2023/09/16 06:21:41;;;;;;;11.50;9.10;;;13.60;99.90;;;;;;4965739;28;20229;-60
2023/09/16 06:24:07;;;;;;;10.57;8.40;;;13.70;99.90;;;;;;4965432;28;20193;-61
2023/09/16 06:26:32;;;;;;;10.33;8.57;;;13.70;99.90;;;;;;4967059;28;21036;-60
2023/09/16 06:28:58;;;;;;;9.63;8.43;;;13.70;99.90;;;;;;4965844;28;20232;-61
2023/09/16 06:31:24;;;;;;;11.83;8.90;;;13.70;99.90;;;;;;4967399;28;20646;-61
2023/09/16 06:33:50;;;;;;;14.13;9.20;;;13.70;99.90;;;;;;4962309;28;20180;-61
2023/09/16 06:36:15;;;;;;;13.93;9.70;;;13.70;99.90;;;;;;4968089;28;20200;-60
2023/09/16 06:38:41;;;;;;;21.83;11.83;;;13.80;99.90;;;;;;4968115;28;20487;-61
2023/09/16 06:41:06;;;;;;;17.70;11.83;;;13.80;99.90;;;;;;4964881;28;20213;-61
2023/09/16 06:43:32;;;;;;;21.20;12.27;;;13.80;99.90;;;;;;4964925;28;20181;-61
2023/09/16 06:45:57;;;;;;;45.13;18.80;;;13.90;99.90;;;;;;4969777;28;20696;-61
2023/09/16 06:48:23;;;;;;;42.80;17.83;;;13.90;99.90;;;;;;4965472;28;20189;-61
2023/09/16 06:50:50;;;;;;;26.23;14.37;;;14.00;99.90;;;;;;4963648;28;20170;-61
2023/09/16 06:53:16;;;;;;;27.33;11.80;;;14.00;99.90;;;;;;4966155;28;20547;-61
2023/09/16 06:55:42;;;;;;;27.63;14.00;;;14.00;99.90;;;;;;4963234;28;20986;-61
2023/09/16 06:58:07;;;;;;;31.47;16.30;;;14.10;99.90;;;;;;4968635;28;20177;-60
2023/09/16 07:00:34;;;;;;;34.70;17.40;;;14.10;99.90;;;;;;4967466;28;20712;-61
2023/09/16 07:03:02;;;;;;;29.13;16.17;;;14.20;99.90;;;;;;4962062;28;20277;-62
2023/09/16 07:05:31;;;;;;;40.60;17.53;;;14.20;99.90;;;;;;4965426;28;20991;-61
2023/09/16 07:07:58;;;;;;;30.80;15.93;;;14.30;99.90;;;;;;4965201;28;20509;-61
2023/09/16 07:10:24;;;;;;;49.83;20.90;;;14.30;99.90;;;;;;4966824;28;20436;-61
2023/09/16 07:12:50;;;;;;;84.20;28.80;;;14.40;99.90;;;;;;4954234;28;20453;-61
2023/09/16 07:15:17;;;;;;;78.23;27.77;;;14.40;99.90;;;;;;4956977;28;20856;-60
2023/09/16 07:17:43;;;;;;;50.00;24.00;;;14.50;99.90;;;;;;4966592;28;20587;-61
2023/09/16 07:20:09;;;;;;;30.33;15.77;;;14.60;99.90;;;;;;4967800;28;20445;-61
2023/09/16 07:22:34;;;;;;;25.13;13.30;;;14.60;99.90;;;;;;4980652;28;20202;-61
2023/09/16 07:25:00;;;;;;;17.20;11.50;;;14.70;99.90;;;;;;4962867;28;20473;-61
2023/09/16 07:27:26;;;;;;;18.73;11.07;;;14.70;99.90;;;;;;4978261;28;20174;-61
2023/09/16 07:29:51;;;;;;;19.63;11.03;;;14.80;99.90;;;;;;4964602;28;20270;-61
2023/09/16 07:32:17;;;;;;;13.43;9.83;;;14.70;99.90;;;;;;4966763;28;20220;-60
2023/09/16 07:34:42;;;;;;;14.27;10.70;;;14.80;99.90;;;;;;4960682;28;20182;-60
2023/09/16 07:37:08;;;;;;;23.80;14.13;;;14.90;99.90;;;;;;4968574;28;20182;-60
2023/09/16 07:39:33;;;;;;;18.63;12.40;;;15.00;99.90;;;;;;4959607;28;20186;-61
2023/09/16 07:41:59;;;;;;;20.87;13.80;;;15.00;99.90;;;;;;4960743;28;20195;-61
2023/09/16 07:44:26;;;;;;;28.47;16.57;;;15.10;99.90;;;;;;4982677;28;20170;-61
2023/09/16 07:46:52;;;;;;;21.10;14.20;;;15.20;99.90;;;;;;4971499;28;20673;-61
2023/09/16 07:49:17;;;;;;;22.20;15.70;;;15.30;99.90;;;;;;4969553;28;20956;-61
2023/09/16 07:51:45;;;;;;;24.30;15.87;;;15.30;99.90;;;;;;4963275;28;20282;-61
2023/09/16 07:54:14;;;;;;;23.30;15.47;;;15.40;99.90;;;;;;4965647;28;20173;-61
2023/09/16 07:56:40;;;;;;;30.93;19.97;;;15.50;99.90;;;;;;4973123;28;20428;-61
2023/09/16 07:59:06;;;;;;;28.83;19.27;;;15.60;99.90;;;;;;4966438;28;20433;-61
2023/09/16 08:01:31;;;;;;;26.57;18.53;;;15.70;99.90;;;;;;4964554;28;20687;-60
2023/09/16 08:03:57;;;;;;;27.00;16.57;;;15.70;99.90;;;;;;4969571;28;20213;-61
2023/09/16 08:06:23;;;;;;;27.67;15.30;;;15.80;99.90;;;;;;4972631;28;20295;-60
2023/09/16 08:08:51;;;;;;;22.27;14.77;;;15.90;99.90;;;;;;4970251;28;20178;-59
2023/09/16 08:11:17;;;;;;;19.87;14.33;;;15.90;99.90;;;;;;4969423;28;20460;-60
2023/09/16 08:13:43;;;;;;;21.70;14.80;;;16.10;99.90;;;;;;4970281;28;20421;-60
2023/09/16 08:16:08;;;;;;;20.67;15.20;;;16.20;99.90;;;;;;4965552;28;20193;-60
2023/09/16 08:18:34;;;;;;;19.07;13.73;;;16.30;99.90;;;;;;4969572;28;20182;-60
2023/09/16 08:21:01;;;;;;;26.23;17.30;;;16.40;99.90;;;;;;4971445;28;20648;-60
2023/09/16 08:23:26;;;;;;;24.40;16.23;;;16.60;99.90;;;;;;4971576;28;20680;-60
2023/09/16 08:25:52;;;;;;;23.40;16.07;;;16.70;99.90;;;;;;4965358;28;20457;-60
2023/09/16 08:28:18;;;;;;;24.20;15.50;;;16.80;99.90;;;;;;4962807;28;20716;-59
2023/09/16 08:30:43;;;;;;;24.47;16.10;;;17.00;99.90;;;;;;4956449;28;20226;-60
2023/09/16 08:33:09;;;;;;;30.60;18.20;;;17.10;99.90;;;;;;4967481;28;20201;-61
2023/09/16 08:35:35;;;;;;;26.10;17.30;;;17.30;99.90;;;;;;4986697;28;20537;-60
2023/09/16 08:38:02;;;;;;;28.57;17.90;;;17.40;99.90;;;;;;4969709;28;20640;-61
2023/09/16 08:40:31;;;;;;;27.17;17.57;;;17.60;99.90;;;;;;4971341;28;20178;-61
2023/09/16 08:43:03;;;;;;;24.23;17.07;;;17.70;99.90;;;;;;4969295;28;20473;-61
2023/09/16 08:45:32;;;;;;;26.47;14.83;;;17.80;99.90;;;;;;4969652;28;20556;-61
2023/09/16 08:48:01;;;;;;;24.97;15.40;;;18.00;99.90;;;;;;4968923;28;20505;-60
2023/09/16 08:50:30;;;;;;;23.77;14.57;;;18.10;99.90;;;;;;4967163;28;20422;-61
2023/09/16 08:53:02;;;;;;;19.60;14.43;;;18.30;99.90;;;;;;4965051;28;20734;-61
2023/09/16 08:55:27;;;;;;;17.90;13.57;;;18.40;99.90;;;;;;4963881;28;20425;-61
2023/09/16 08:58:13;;;;;;;20.23;13.57;;;18.50;99.90;;;;;;4962139;28;20496;-61
2023/09/16 09:00:39;;;;;;;17.10;12.27;;;18.60;99.90;;;;;;4968008;28;20205;-60
2023/09/16 09:03:06;;;;;;;16.50;12.37;;;18.60;99.90;;;;;;4966966;28;20445;-60
2023/09/16 09:05:36;;;;;;;18.80;13.03;;;18.80;99.90;;;;;;4970811;28;20457;-61
2023/09/16 09:08:02;;;;;;;15.63;11.30;;;19.00;99.90;;;;;;4972161;28;20456;-61
2023/09/16 09:10:28;;;;;;;15.30;10.93;;;19.20;99.90;;;;;;4973749;28;20417;-61
2023/09/16 09:12:55;;;;;;;17.03;11.63;;;19.40;99.90;;;;;;4968006;28;20444;-61
2023/09/16 09:15:22;;;;;;;16.93;10.77;;;19.70;99.90;;;;;;4965144;28;20821;-61
2023/09/16 09:17:55;;;;;;;14.40;9.83;;;19.90;99.90;;;;;;4971921;28;20425;-61
2023/09/16 09:20:24;;;;;;;15.73;11.93;;;20.00;99.90;;;;;;4974784;28;20421;-61
2023/09/16 09:22:51;;;;;;;15.17;11.70;;;20.20;99.90;;;;;;4972865;28;21098;-60
2023/09/16 09:25:25;;;;;;;18.63;12.43;;;20.40;99.90;;;;;;4968360;28;20814;-61
2023/09/16 09:27:52;;;;;;;15.73;11.80;;;20.60;99.90;;;;;;4968460;28;20520;-60
2023/09/16 09:30:29;;;;;;;16.70;12.57;;;20.60;99.90;;;;;;4972413;28;21098;-60
2023/09/16 09:32:55;;;;;;;16.57;10.40;;;20.70;99.90;;;;;;4976416;28;20453;-60
2023/09/16 09:35:26;;;;;;;16.20;10.27;;;20.80;99.90;;;;;;4973853;28;20441;-61
2023/09/16 09:37:51;;;;;;;14.20;9.57;;;20.90;99.90;;;;;;4972398;28;20433;-61
2023/09/16 09:40:18;;;;;;;11.63;9.50;;;21.10;99.90;;;;;;4970765;28;20849;-60
2023/09/16 09:42:46;;;;;;;14.90;7.70;;;21.20;99.90;;;;;;4972527;28;20600;-61
2023/09/16 09:45:14;;;;;;;9.50;7.93;;;21.30;99.90;;;;;;4971280;28;20461;-60
2023/09/16 09:47:40;;;;;;;9.20;7.10;;;21.50;99.90;;;;;;4975414;28;20480;-60
2023/09/16 09:50:08;;;;;;;10.37;7.20;;;21.70;99.90;;;;;;4966693;28;21403;-60
2023/09/16 09:52:36;;;;;;;8.67;6.60;;;21.90;99.90;;;;;;4973822;28;20550;-60
2023/09/16 09:55:03;;;;;;;8.27;6.10;;;22.10;99.90;;;;;;4969343;28;20441;-61
2023/09/16 09:57:28;;;;;;;8.03;6.00;;;22.30;99.90;;;;;;4971130;28;20487;-61
2023/09/16 09:59:58;;;;;;;6.80;5.57;;;22.50;99.90;;;;;;4968558;28;20528;-61
2023/09/16 10:02:29;;;;;;;6.13;5.53;;;22.70;99.90;;;;;;4967455;28;20818;-61
2023/09/16 10:05:01;;;;;;;7.23;4.93;;;22.80;99.90;;;;;;4969352;28;20421;-61
2023/09/16 10:07:28;;;;;;;5.20;4.67;;;23.00;97.70;;;;;;4967353;28;20444;-60
2023/09/16 10:09:54;;;;;;;4.60;4.00;;;23.10;95.40;;;;;;4971093;28;20422;-61
2023/09/16 10:12:21;;;;;;;5.17;4.00;;;23.30;87.60;;;;;;4970920;28;20456;-61
2023/09/16 10:14:48;;;;;;;4.53;4.13;;;23.40;86.70;;;;;;4968573;28;20265;-61
2023/09/16 10:17:15;;;;;;;5.37;4.30;;;23.50;78.70;;;;;;4969465;28;20429;-61
2023/09/16 10:19:42;;;;;;;7.50;4.30;;;23.60;77.20;;;;;;4967627;28;20425;-61
2023/09/16 10:22:08;;;;;;;6.30;4.00;;;23.80;83.50;;;;;;4970535;28;20452;-61
2023/09/16 10:24:34;;;;;;;5.43;4.60;;;24.00;86.10;;;;;;4966610;28;20448;-61
2023/09/16 10:27:08;;;;;;;5.00;4.23;;;24.20;78.00;;;;;;4967078;28;20189;-61
2023/09/16 10:29:35;;;;;;;5.97;4.73;;;24.40;85.10;;;;;;4965161;28;20426;-61
2023/09/16 10:32:01;;;;;;;7.93;4.27;;;24.60;76.50;;;;;;4966998;28;21218;-61
2023/09/16 10:34:27;;;;;;;4.40;4.00;;;24.80;73.70;;;;;;4971074;28;20430;-61
2023/09/16 10:36:53;;;;;;;6.27;4.13;;;24.90;75.30;;;;;;4962906;28;20196;-61
2023/09/16 10:39:20;;;;;;;5.07;3.60;;;24.90;76.40;;;;;;4970766;28;20425;-60
2023/09/16 10:41:47;;;;;;;8.10;4.30;;;24.90;78.90;;;;;;4970009;28;20201;-61
2023/09/16 10:44:14;;;;;;;5.10;4.30;;;24.90;77.70;;;;;;4966226;28;20462;-61
2023/09/16 10:46:40;;;;;;;4.50;3.47;;;24.80;74.10;;;;;;4964096;28;20515;-61
2023/09/16 10:49:05;;;;;;;4.17;3.77;;;24.80;78.90;;;;;;4966603;28;20429;-61
2023/09/16 10:51:38;;;;;;;4.17;3.77;;;24.70;79.60;;;;;;4972030;28;20189;-61
2023/09/16 10:54:37;;;;;;;6.50;4.57;;;24.50;80.50;;;;;;4963517;28;20184;-61
2023/09/16 10:57:08;;;;;;;4.87;4.43;;;24.40;82.30;;;;;;4969005;28;20966;-61
2023/09/16 10:59:36;;;;;;;4.50;4.10;;;24.30;88.50;;;;;;4970522;28;20508;-61
2023/09/16 11:02:14;;;;;;;5.10;4.60;;;24.30;87.40;;;;;;4969032;28;20523;-61
2023/09/16 11:04:40;;;;;;;4.13;3.73;;;24.20;85.40;;;;;;4967491;28;20432;-61
2023/09/16 11:07:07;;;;;;;4.90;4.10;;;24.10;80.70;;;;;;4967153;28;20521;-61
2023/09/16 11:09:32;;;;;;;5.97;4.13;;;24.10;82.00;;;;;;4967872;28;20174;-61
2023/09/16 11:11:59;;;;;;;4.23;3.27;;;24.10;82.60;;;;;;4967294;28;20797;-62
2023/09/16 11:14:26;;;;;;;2.70;2.50;;;24.20;83.70;;;;;;4971414;28;20755;-62
2023/09/16 11:16:52;;;;;;;4.33;3.03;;;24.30;79.20;;;;;;4972934;28;20423;-61
2023/09/16 11:19:24;;;;;;;4.80;3.00;;;24.30;74.30;;;;;;4974641;28;20466;-61
2023/09/16 11:21:51;;;;;;;3.00;2.60;;;24.40;69.80;;;;;;4973891;28;20728;-62
2023/09/16 11:24:16;;;;;;;3.70;3.40;;;24.50;69.10;;;;;;4976038;28;20487;-61
2023/09/16 11:26:46;;;;;;;3.20;2.90;;;24.70;73.30;;;;;;4969775;28;20539;-62
2023/09/16 11:29:21;;;;;;;5.83;3.23;;;24.90;66.30;;;;;;4967823;28;20180;-61
2023/09/16 11:31:46;;;;;;;5.17;2.80;;;25.10;64.00;;;;;;4969931;28;20466;-62
2023/09/16 11:34:17;;;;;;;3.30;2.90;;;25.10;62.60;;;;;;4974410;28;20416;-61
2023/09/16 11:36:47;;;;;;;3.10;2.90;;;25.10;63.10;;;;;;4956556;28;20181;-61
2023/09/16 11:39:18;;;;;;;2.77;2.57;;;25.00;66.70;;;;;;4971998;28;20428;-62
2023/09/16 11:41:45;;;;;;;2.50;2.33;;;25.20;64.00;;;;;;4975966;28;20436;-62
2023/09/16 11:44:11;;;;;;;2.50;2.30;;;25.50;62.70;;;;;;4973768;28;20440;-61
2023/09/16 11:46:39;;;;;;;2.30;2.10;;;25.80;61.40;;;;;;4974633;28;20463;-61
2023/09/16 11:49:05;;;;;;;5.30;2.03;;;26.10;59.30;;;;;;4974017;28;20435;-62
2023/09/16 11:51:40;;;;;;;2.13;1.93;;;26.40;57.30;;;;;;4972452;28;20440;-61
2023/09/16 11:54:06;;;;;;;2.87;2.57;;;26.70;55.60;;;;;;4968050;28;20491;-62
2023/09/16 11:56:35;;;;;;;1.93;1.83;;;26.90;55.60;;;;;;4969256;28;20278;-61
2023/09/16 11:59:03;;;;;;;4.27;2.20;;;27.00;54.50;;;;;;4973885;28;20177;-61
2023/09/16 12:01:31;;;;;;;3.10;1.80;;;27.20;54.10;;;;;;4972445;28;20449;-62
2023/09/16 12:03:58;;;;;;;2.60;2.00;;;27.30;53.60;;;;;;4973039;28;20424;-62
2023/09/16 12:06:25;;;;;;;1.83;1.73;;;27.50;53.80;;;;;;4973578;28;20256;-62
2023/09/16 12:08:54;;;;;;;3.37;2.13;;;27.70;52.60;;;;;;4966616;28;20206;-61
2023/09/16 12:11:21;;;;;;;1.83;1.60;;;27.90;51.40;;;;;;4967491;28;20647;-62
2023/09/16 12:13:48;;;;;;;1.87;1.77;;;28.00;50.70;;;;;;4969389;28;20236;-61
2023/09/16 12:16:15;;;;;;;2.30;1.60;;;28.00;50.10;;;;;;4971144;28;20681;-62
2023/09/16 12:18:44;;;;;;;2.30;1.90;;;27.80;49.10;;;;;;4971444;28;20271;-61
2023/09/16 12:21:12;;;;;;;1.37;1.27;;;27.90;50.10;;;;;;4971952;28;20201;-62
2023/09/16 12:23:39;;;;;;;1.90;1.80;;;28.00;49.70;;;;;;4973354;28;20232;-62
2023/09/16 12:26:10;;;;;;;3.87;1.83;;;28.20;50.00;;;;;;4973904;28;20205;-61
2023/09/16 12:28:37;;;;;;;2.33;1.70;;;28.40;49.00;;;;;;4968051;28;20177;-62